Sir Hugh — MCXN9 — position and weather

sailwx.info

Track history (hours):
 
Tides and Currents Weather Stations Pressure Air Temp Water Temp Dewpoint Dewpoint Depression Visibility Wind Speed Wind Dir Waves Ship Positions

Sir Hugh

Last reported at 2014-Sep-28 19:18 UTC. Time now 2014-Oct-24 13:40 UTC.
Position N 50°48' W 000°49'.
Warning: this ship's position is 25 days out of date.

Length 15 m.

Type: Sailing vessel. MMSI: 235014283.

Date/timePositionNaut miles runAvg speedWind from/ knotsBaromVisibWave heightAir tempDewpointWater temp
2014-Sep-28 19:18N 50°48' W 000°49'0 0.0
2014-Sep-28 18:33N 50°48' W 000°49'0 0.0
2014-Sep-28 17:31N 50°48' W 000°49'0 0.0
2014-Sep-28 16:32N 50°48' W 000°49'0 0.0
2014-Sep-28 15:32N 50°48' W 000°49'0 0.0
2014-Sep-28 14:32N 50°48' W 000°49'0 0.0
2014-Sep-28 13:30N 50°48' W 000°49'0 0.0
2014-Sep-28 12:33N 50°48' W 000°49'5 4.4
2014-Sep-28 11:27N 50°46' W 000°56'5 5.3
2014-Sep-28 10:33N 50°46' W 001°04'6 6.5
2014-Sep-28 09:33N 50°46' W 001°14'3 2.8
2014-Sep-28 08:33N 50°44' W 001°17'6 0.4
2014-Sep-27 15:33N 50°45' W 001°07'7 6.7
2014-Sep-27 14:33N 50°45' W 000°57'5 5.2
2014-Sep-27 13:33N 50°48' W 000°50'  
Track history (hours):
 
Tides and Currents Weather Stations Pressure Air Temp Water Temp Dewpoint Dewpoint Depression Visibility Wind Speed Wind Dir Waves Ship Positions

Sir Hugh

Last reported at 2014-Sep-28 19:18 UTC. Time now 2014-Oct-24 13:40 UTC.
Position N 50°48' W 000°49'.
Warning: this ship's position is 25 days out of date.

Length 15 m.

Type: Sailing vessel. MMSI: 235014283.

Date/timePositionNaut miles runAvg speedWind from/ knotsBaromVisibWave heightAir tempDewpointWater temp
2014-Sep-28 19:18N 50°48' W 000°49'0 0.0
2014-Sep-28 18:33N 50°48' W 000°49'0 0.0
2014-Sep-28 17:31N 50°48' W 000°49'0 0.0
2014-Sep-28 16:32N 50°48' W 000°49'0 0.0
2014-Sep-28 15:32N 50°48' W 000°49'0 0.0
2014-Sep-28 14:32N 50°48' W 000°49'0 0.0
2014-Sep-28 13:30N 50°48' W 000°49'0 0.0
2014-Sep-28 12:33N 50°48' W 000°49'5 4.4
2014-Sep-28 11:27N 50°46' W 000°56'5 5.3
2014-Sep-28 10:33N 50°46' W 001°04'6 6.5
2014-Sep-28 09:33N 50°46' W 001°14'3 2.8
2014-Sep-28 08:33N 50°44' W 001°17'6 0.4
2014-Sep-27 15:33N 50°45' W 001°07'7 6.7
2014-Sep-27 14:33N 50°45' W 000°57'5 5.2
2014-Sep-27 13:33N 50°48' W 000°50'  

Dump ship's entire track history